createdAt,value
2023-03-06T00:02:48.240Z,68.61
2023-03-06T00:05:51.036Z,69.35
2023-03-06T00:08:54.435Z,69.59
2023-03-06T00:11:57.222Z,70.37
2023-03-06T00:14:59.937Z,70.57
2023-03-06T00:18:06.514Z,69.43
2023-03-06T00:21:09.422Z,68.91
2023-03-06T00:24:12.093Z,68.67
2023-03-06T00:27:15.214Z,68.75
2023-03-06T00:30:21.193Z,68.88
2023-03-06T00:33:24.040Z,69.31
2023-03-06T00:36:29.006Z,70.19
2023-03-06T00:39:31.878Z,71.77
2023-03-06T00:42:34.717Z,71.68
2023-03-06T00:45:37.708Z,71.07
2023-03-06T00:48:40.601Z,71.41
2023-03-06T00:51:43.359Z,72.00
2023-03-06T00:54:46.049Z,72.42
2023-03-06T00:57:48.987Z,72.57
2023-03-06T01:00:51.815Z,74.04
2023-03-06T01:03:54.719Z,75.86
2023-03-06T01:06:57.596Z,76.13
2023-03-06T01:10:00.572Z,76.01
2023-03-06T01:13:03.398Z,74.61
2023-03-06T01:16:12.621Z,73.96
2023-03-06T01:19:16.892Z,73.72
2023-03-06T01:22:20.815Z,73.58
2023-03-06T01:25:25.185Z,74.26
2023-03-06T01:28:27.915Z,73.55
2023-03-06T01:31:31.644Z,74.33
2023-03-06T01:34:34.496Z,74.25
2023-03-06T01:37:38.218Z,74.35
2023-03-06T01:40:41.446Z,74.59
2023-03-06T01:43:46.479Z,74.93
2023-03-06T01:46:49.323Z,75.08
2023-03-06T01:49:52.351Z,75.43
2023-03-06T01:52:59.908Z,75.09
2023-03-06T01:56:02.911Z,75.03
2023-03-06T01:59:07.644Z,75.44
2023-03-06T02:02:12.886Z,75.41
2023-03-06T02:05:15.849Z,75.13
2023-03-06T02:08:21.857Z,75.33
2023-03-06T02:11:25.151Z,76.03
2023-03-06T02:14:29.390Z,75.65
2023-03-06T02:17:34.967Z,75.53
2023-03-06T02:20:44.612Z,76.17
2023-03-06T02:23:56.236Z,76.12
2023-03-06T02:27:01.310Z,75.79
2023-03-06T02:30:11.105Z,75.30
2023-03-06T02:33:16.318Z,74.66
2023-03-06T02:36:19.064Z,74.45
2023-03-06T02:39:28.358Z,74.78
2023-03-06T02:42:31.493Z,74.30
2023-03-06T02:45:36.286Z,74.30
2023-03-06T02:48:39.190Z,74.87
2023-03-06T02:51:42.050Z,75.01
2023-03-06T02:54:44.886Z,74.97
2023-03-06T02:57:47.896Z,74.63
2023-03-06T03:00:51.050Z,74.73
2023-03-06T03:03:55.277Z,74.82
2023-03-06T03:06:58.248Z,74.44
2023-03-06T03:10:01.560Z,74.71
2023-03-06T03:13:05.193Z,74.42
2023-03-06T03:16:16.420Z,74.09
2023-03-06T03:19:20.321Z,74.06
2023-03-06T03:22:23.197Z,74.14
2023-03-06T03:25:26.580Z,74.60
2023-03-06T03:28:32.098Z,74.54
2023-03-06T03:31:34.880Z,74.46
2023-03-06T03:34:38.649Z,74.78
2023-03-06T03:37:41.999Z,74.06
2023-03-06T03:40:45.229Z,74.27
2023-03-06T03:43:48.640Z,74.58
2023-03-06T03:46:51.527Z,74.61
2023-03-06T03:49:57.605Z,73.93
2023-03-06T03:53:01.023Z,74.06
2023-03-06T03:56:04.686Z,74.04
2023-03-06T03:59:10.575Z,74.02
2023-03-06T04:02:21.968Z,74.74
2023-03-06T04:05:42.569Z,75.28
2023-03-06T04:08:47.958Z,75.21
2023-03-06T04:11:51.083Z,75.10
2023-03-06T04:14:54.575Z,74.65
2023-03-06T04:17:58.174Z,74.98
2023-03-06T04:21:03.532Z,75.46
2023-03-06T04:24:07.340Z,75.24
2023-03-06T04:27:10.844Z,75.24
2023-03-06T04:30:13.859Z,75.19
2023-03-06T04:33:17.744Z,74.32
2023-03-06T04:36:32.671Z,74.13
2023-03-06T04:39:40.885Z,73.89
2023-03-06T04:42:43.647Z,73.88
2023-03-06T04:45:46.511Z,73.82
2023-03-06T04:48:49.355Z,73.74
2023-03-06T04:51:52.092Z,73.56
2023-03-06T04:54:54.789Z,73.53
2023-03-06T04:57:57.654Z,73.81
2023-03-06T05:01:00.446Z,73.77
2023-03-06T05:04:03.399Z,74.34
2023-03-06T05:07:06.126Z,74.03
2023-03-06T05:10:12.959Z,73.86
2023-03-06T05:13:15.797Z,73.55
2023-03-06T05:16:18.898Z,73.88
2023-03-06T05:19:21.756Z,75.34
2023-03-06T05:22:24.762Z,75.49
2023-03-06T05:25:27.483Z,75.76
2023-03-06T05:28:30.343Z,76.53
2023-03-06T05:31:33.268Z,76.04
2023-03-06T05:34:36.009Z,75.57
2023-03-06T05:37:38.791Z,74.90
2023-03-06T05:40:44.005Z,74.79
2023-03-06T05:43:46.764Z,74.76
2023-03-06T05:46:50.896Z,74.38
2023-03-06T05:49:53.605Z,74.47
2023-03-06T05:52:56.395Z,74.79
2023-03-06T05:56:02.023Z,74.53
2023-03-06T05:59:04.870Z,74.64
2023-03-06T06:02:08.174Z,74.29
2023-03-06T06:05:13.066Z,74.31
2023-03-06T06:08:16.269Z,74.05
2023-03-06T06:11:20.898Z,73.28
2023-03-06T06:14:23.695Z,73.25
2023-03-06T06:17:26.493Z,73.23
2023-03-06T06:20:29.177Z,73.17
2023-03-06T06:23:31.998Z,73.03
2023-03-06T06:26:34.945Z,73.38
2023-03-06T06:29:37.993Z,73.08
2023-03-06T06:32:40.768Z,73.10
2023-03-06T06:35:43.553Z,73.51
2023-03-06T06:38:46.331Z,72.99
2023-03-06T06:42:05.665Z,73.53
2023-03-06T06:45:13.167Z,74.20
2023-03-06T06:48:17.805Z,73.70
2023-03-06T06:51:22.762Z,74.30
2023-03-06T06:54:25.761Z,73.33
2023-03-06T06:57:28.510Z,72.77
2023-03-06T07:00:31.277Z,73.16
2023-03-06T07:03:34.650Z,72.11
2023-03-06T07:06:37.502Z,72.41
2023-03-06T07:09:40.497Z,72.14
2023-03-06T07:12:43.793Z,71.48
2023-03-06T07:15:46.738Z,70.59
2023-03-06T07:18:49.532Z,70.04
2023-03-06T07:21:52.352Z,70.01
2023-03-06T07:24:55.126Z,70.70
2023-03-06T07:27:57.961Z,71.05
2023-03-06T07:31:00.786Z,70.81
2023-03-06T07:34:05.008Z,71.12
2023-03-06T07:37:07.938Z,70.65
2023-03-06T07:40:12.491Z,71.22
2023-03-06T07:43:19.484Z,70.68
2023-03-06T07:46:29.907Z,68.89
2023-03-06T07:49:35.067Z,67.41
2023-03-06T07:52:38.279Z,66.68
2023-03-06T07:55:41.709Z,65.72
2023-03-06T07:58:45.933Z,65.50
2023-03-06T08:01:48.769Z,65.20
2023-03-06T08:04:53.504Z,64.64
2023-03-06T08:07:56.279Z,65.69
2023-03-06T08:10:58.954Z,65.53
2023-03-06T08:14:01.825Z,65.96
2023-03-06T08:17:04.762Z,64.33
2023-03-06T08:20:08.642Z,63.46
2023-03-06T08:23:12.117Z,63.20
2023-03-06T08:26:24.230Z,62.54
2023-03-06T08:29:28.171Z,61.13
2023-03-06T08:32:31.014Z,60.45
2023-03-06T08:35:33.894Z,58.69
2023-03-06T08:38:36.804Z,58.23
2023-03-06T08:41:40.552Z,56.35
2023-03-06T08:44:43.408Z,58.63
2023-03-06T08:47:46.185Z,56.33
2023-03-06T08:50:49.361Z,55.86
2023-03-06T08:53:52.902Z,57.48
2023-03-06T08:56:55.684Z,57.25
2023-03-06T08:59:58.726Z,54.22
2023-03-06T09:03:01.466Z,55.39
2023-03-06T09:06:04.315Z,55.20
2023-03-06T09:09:08.317Z,54.54
2023-03-06T09:12:11.169Z,52.93
2023-03-06T09:15:14.336Z,51.86
2023-03-06T09:18:17.058Z,51.29
2023-03-06T09:21:23.259Z,51.78
2023-03-06T09:24:26.127Z,50.09
2023-03-06T09:27:29.069Z,50.03
2023-03-06T09:30:31.963Z,48.17
2023-03-06T09:33:34.887Z,47.72
2023-03-06T09:36:54.986Z,48.40
2023-03-06T09:39:59.309Z,46.52
2023-03-06T09:43:02.187Z,45.84
2023-03-06T09:46:24.568Z,45.85
2023-03-06T09:49:49.037Z,46.66
2023-03-06T09:53:16.454Z,46.95
2023-03-06T09:56:30.244Z,47.08
2023-03-06T09:59:33.630Z,47.08
2023-03-06T10:02:44.749Z,46.77
2023-03-06T10:05:55.369Z,46.54
2023-03-06T10:09:15.329Z,46.50
2023-03-06T10:12:28.643Z,47.25
2023-03-06T10:15:38.713Z,47.42
2023-03-06T10:18:41.682Z,46.75
2023-03-06T10:21:55.705Z,47.07
2023-03-06T10:25:16.411Z,47.04
2023-03-06T10:28:25.233Z,48.18
2023-03-06T10:31:28.894Z,48.38
2023-03-06T10:34:37.685Z,48.12
2023-03-06T10:37:40.354Z,46.99
2023-03-06T10:41:01.021Z,46.75
2023-03-06T10:44:03.918Z,46.44
2023-03-06T10:47:29.518Z,47.66
2023-03-06T10:50:32.392Z,46.85
2023-03-06T10:53:35.272Z,46.77
2023-03-06T10:56:40.760Z,46.22
2023-03-06T10:59:58.371Z,47.12
2023-03-06T11:03:16.372Z,47.44
2023-03-06T11:06:37.064Z,47.35
2023-03-06T11:09:40.273Z,47.88
2023-03-06T11:12:44.316Z,48.61
2023-03-06T11:16:25.646Z,48.87
2023-03-06T11:19:29.866Z,47.89
2023-03-06T11:22:33.033Z,46.44
2023-03-06T11:25:50.538Z,44.90
2023-03-06T11:29:17.796Z,44.58
2023-03-06T11:32:24.294Z,45.23
2023-03-06T11:35:35.902Z,44.22
2023-03-06T11:38:50.543Z,43.78
2023-03-06T11:42:20.799Z,42.90
2023-03-06T11:45:45.079Z,43.81
2023-03-06T11:49:26.323Z,46.12
2023-03-06T11:52:44.590Z,46.50
2023-03-06T11:56:02.360Z,48.41
2023-03-06T11:59:42.299Z,49.03
2023-03-06T12:03:04.315Z,50.98
2023-03-06T12:06:09.713Z,51.60
2023-03-06T12:09:12.572Z,52.52
2023-03-06T12:12:27.516Z,53.34
2023-03-06T12:15:51.238Z,56.04
2023-03-06T12:18:56.735Z,58.40
2023-03-06T12:22:21.399Z,60.19
2023-03-06T12:25:32.907Z,62.07
2023-03-06T12:28:54.658Z,59.67
2023-03-06T12:32:14.983Z,61.15
2023-03-06T12:35:23.550Z,59.38
2023-03-06T12:38:49.634Z,58.59
2023-03-06T12:42:23.492Z,58.25
2023-03-06T12:45:33.266Z,57.76
2023-03-06T12:48:39.068Z,56.71
2023-03-06T12:51:44.612Z,56.89
2023-03-06T12:54:47.695Z,57.33
2023-03-06T12:57:50.850Z,56.41
2023-03-06T13:01:04.186Z,56.54
2023-03-06T13:04:20.169Z,55.62
2023-03-06T13:07:29.412Z,54.87
2023-03-06T13:10:34.776Z,54.61
2023-03-06T13:13:48.488Z,52.65
2023-03-06T13:16:51.724Z,53.48
2023-03-06T13:20:13.300Z,55.47
2023-03-06T13:23:42.745Z,55.83
2023-03-06T13:26:45.438Z,56.56
2023-03-06T13:29:50.972Z,59.69
2023-03-06T13:32:55.023Z,61.69
2023-03-06T13:35:59.324Z,62.32
2023-03-06T13:39:13.886Z,65.17
2023-03-06T13:42:26.632Z,64.87
2023-03-06T13:45:46.072Z,65.17
2023-03-06T13:49:08.844Z,65.86
2023-03-06T13:52:55.924Z,66.56
2023-03-06T13:56:28.914Z,64.48
2023-03-06T14:00:16.662Z,63.10
2023-03-06T14:03:40.596Z,62.43
2023-03-06T14:07:07.329Z,63.70
2023-03-06T14:10:24.928Z,63.84
2023-03-06T14:13:50.774Z,63.75
2023-03-06T14:16:53.927Z,66.07
2023-03-06T14:20:01.768Z,65.17
2023-03-06T14:23:27.914Z,65.71
2023-03-06T14:26:40.931Z,65.71
2023-03-06T14:29:44.654Z,67.27
2023-03-06T14:32:50.083Z,65.74
2023-03-06T14:36:00.759Z,65.25
2023-03-06T14:39:29.718Z,65.39
2023-03-06T14:42:32.986Z,64.80
2023-03-06T14:45:35.879Z,64.36
2023-03-06T14:48:44.416Z,66.31
2023-03-06T14:51:52.434Z,67.06
2023-03-06T14:54:55.571Z,67.39
2023-03-06T14:58:13.609Z,68.36
2023-03-06T15:01:21.763Z,68.87
2023-03-06T15:04:30.509Z,68.80
2023-03-06T15:07:34.045Z,69.78
2023-03-06T15:10:37.567Z,69.93
2023-03-06T15:13:40.554Z,70.01
2023-03-06T15:16:43.397Z,71.35
2023-03-06T15:19:54.334Z,70.05
2023-03-06T15:22:57.066Z,70.96
2023-03-06T15:26:03.705Z,70.68
2023-03-06T15:29:10.300Z,70.88
2023-03-06T15:32:25.611Z,71.22
2023-03-06T15:35:34.661Z,70.56
2023-03-06T15:38:42.801Z,70.63
2023-03-06T15:41:46.500Z,71.25
2023-03-06T15:44:53.221Z,71.20
2023-03-06T15:47:56.135Z,69.96
2023-03-06T15:50:59.020Z,69.68
2023-03-06T15:54:11.820Z,69.37
2023-03-06T15:57:35.414Z,68.96
2023-03-06T16:00:40.216Z,69.44
2023-03-06T16:03:43.604Z,69.34
2023-03-06T16:06:46.574Z,69.12
2023-03-06T16:09:49.548Z,69.65
2023-03-06T16:12:56.674Z,69.74
2023-03-06T16:15:59.612Z,69.82
2023-03-06T16:19:06.067Z,69.63
2023-03-06T16:22:10.651Z,69.70
2023-03-06T16:25:14.615Z,69.57
2023-03-06T16:28:18.100Z,70.12
2023-03-06T16:31:21.057Z,70.38
2023-03-06T16:34:24.288Z,69.83
2023-03-06T16:37:27.070Z,70.85
2023-03-06T16:40:38.062Z,72.68
2023-03-06T16:43:40.851Z,72.60
2023-03-06T16:46:46.090Z,72.81
2023-03-06T16:49:50.021Z,71.85
2023-03-06T16:52:54.702Z,71.86
2023-03-06T16:55:57.523Z,74.02
2023-03-06T16:59:00.309Z,75.07
2023-03-06T17:02:07.574Z,77.54
2023-03-06T17:05:11.806Z,77.66
2023-03-06T17:08:14.777Z,77.71
2023-03-06T17:11:20.381Z,77.86
2023-03-06T17:14:23.165Z,77.58
2023-03-06T17:17:26.048Z,77.56
2023-03-06T17:20:29.109Z,76.86
2023-03-06T17:23:32.181Z,77.09
2023-03-06T17:26:40.293Z,77.26
2023-03-06T17:29:43.590Z,76.97
2023-03-06T17:32:46.441Z,77.26
2023-03-06T17:35:50.636Z,77.48
2023-03-06T17:38:58.203Z,77.21
2023-03-06T17:42:01.459Z,76.72
2023-03-06T17:45:05.172Z,76.44
2023-03-06T17:48:08.036Z,76.92
2023-03-06T17:51:11.821Z,75.04
2023-03-06T17:54:14.703Z,76.58
2023-03-06T17:57:17.681Z,76.28
2023-03-06T18:00:21.261Z,76.07
2023-03-06T18:03:24.354Z,75.95
2023-03-06T18:06:30.259Z,77.63
2023-03-06T18:09:33.059Z,80.58
2023-03-06T18:12:36.396Z,81.22
2023-03-06T18:15:41.106Z,81.67
2023-03-06T18:18:45.026Z,82.38
2023-03-06T18:21:48.084Z,83.72
2023-03-06T18:24:52.246Z,83.82
2023-03-06T18:27:55.193Z,84.62
2023-03-06T18:30:57.988Z,84.52
2023-03-06T18:34:03.217Z,84.16
2023-03-06T18:37:06.319Z,83.85
2023-03-06T18:40:09.982Z,84.14
2023-03-06T18:43:13.027Z,83.77
2023-03-06T18:46:16.165Z,84.15
2023-03-06T18:49:20.073Z,83.86
2023-03-06T18:52:23.682Z,83.89
2023-03-06T18:55:26.716Z,83.68
2023-03-06T18:58:30.115Z,83.35
2023-03-06T19:01:34.096Z,82.72
2023-03-06T19:04:38.135Z,82.07
2023-03-06T19:07:42.208Z,82.39
2023-03-06T19:10:47.100Z,82.26
2023-03-06T19:13:50.417Z,82.02
2023-03-06T19:16:53.502Z,81.77
2023-03-06T19:19:56.938Z,81.75
2023-03-06T19:23:00.328Z,81.96
2023-03-06T19:26:03.943Z,81.60
2023-03-06T19:29:07.476Z,81.58
2023-03-06T19:32:10.666Z,82.40
2023-03-06T19:35:13.784Z,82.21
2023-03-06T19:38:16.782Z,82.03
2023-03-06T19:41:19.733Z,82.55
2023-03-06T19:44:24.546Z,83.22
2023-03-06T19:47:28.617Z,83.94
2023-03-06T19:50:31.840Z,83.95
2023-03-06T19:53:38.973Z,83.88
2023-03-06T19:56:42.428Z,83.89
2023-03-06T19:59:52.173Z,83.75
2023-03-06T20:02:55.944Z,83.94
2023-03-06T20:05:59.035Z,83.82
2023-03-06T20:09:04.712Z,83.94
2023-03-06T20:12:08.331Z,84.39
2023-03-06T20:15:11.645Z,84.13
2023-03-06T20:18:15.200Z,83.98
2023-03-06T20:21:18.261Z,83.74
2023-03-06T20:24:21.118Z,85.17
2023-03-06T20:27:24.159Z,86.55
2023-03-06T20:30:36.663Z,85.95
2023-03-06T20:33:41.117Z,85.41
2023-03-06T20:36:44.574Z,85.24
2023-03-06T20:39:47.960Z,86.13
2023-03-06T20:42:51.069Z,86.91
2023-03-06T20:45:59.398Z,87.85
2023-03-06T20:49:02.590Z,88.40
2023-03-06T20:52:05.581Z,88.45
2023-03-06T20:55:09.116Z,87.87
2023-03-06T20:58:12.036Z,86.61
2023-03-06T21:01:26.821Z,86.35
2023-03-06T21:04:29.958Z,86.81
2023-03-06T21:07:32.837Z,86.71
2023-03-06T21:10:38.084Z,86.52
2023-03-06T21:13:40.969Z,85.86
2023-03-06T21:16:44.678Z,86.53
2023-03-06T21:19:47.671Z,85.74
2023-03-06T21:22:52.077Z,85.23
2023-03-06T21:25:54.841Z,84.95
2023-03-06T21:28:59.056Z,85.01
2023-03-06T21:32:01.855Z,84.82
2023-03-06T21:35:04.977Z,84.53
2023-03-06T21:38:08.293Z,84.95
2023-03-06T21:41:16.824Z,84.65
2023-03-06T21:44:19.888Z,84.54
2023-03-06T21:47:22.647Z,84.27
2023-03-06T21:50:26.127Z,83.87
2023-03-06T21:53:28.828Z,83.90
2023-03-06T21:56:33.641Z,83.48
2023-03-06T21:59:37.880Z,83.80
2023-03-06T22:02:40.789Z,83.32
2023-03-06T22:05:44.615Z,83.43
2023-03-06T22:08:47.720Z,84.70
2023-03-06T22:11:50.478Z,85.76
2023-03-06T22:14:53.244Z,86.65
2023-03-06T22:17:55.991Z,86.67
2023-03-06T22:20:59.246Z,85.40
2023-03-06T22:24:01.974Z,85.00
2023-03-06T22:27:04.993Z,84.60
2023-03-06T22:30:08.515Z,84.99
2023-03-06T22:33:11.583Z,84.91
2023-03-06T22:36:15.828Z,84.89
2023-03-06T22:39:19.074Z,84.72
2023-03-06T22:42:21.909Z,84.75
2023-03-06T22:45:24.857Z,84.81
2023-03-06T22:48:28.034Z,84.43
2023-03-06T22:51:31.107Z,84.47
2023-03-06T22:54:33.886Z,84.17
2023-03-06T22:57:36.628Z,84.40
2023-03-06T23:00:39.449Z,84.67
2023-03-06T23:03:44.849Z,85.93
2023-03-06T23:06:47.770Z,86.72
2023-03-06T23:09:50.602Z,87.55
2023-03-06T23:13:12.147Z,87.02
2023-03-06T23:16:34.053Z,86.32
2023-03-06T23:19:55.749Z,85.53
2023-03-06T23:23:17.212Z,85.43
2023-03-06T23:26:22.390Z,84.65
2023-03-06T23:29:25.474Z,84.78
2023-03-06T23:32:28.354Z,84.76
2023-03-06T23:35:33.617Z,84.39
2023-03-06T23:38:37.230Z,84.68
2023-03-06T23:41:40.090Z,84.45
2023-03-06T23:44:42.966Z,84.31
2023-03-06T23:47:45.900Z,84.60
2023-03-06T23:50:48.825Z,84.71
2023-03-06T23:54:00.062Z,84.58
2023-03-06T23:57:02.789Z,84.68
